This is the latest recevied weather packets stored in our database for station/object AJ5AG. If no packets are shown the sender has not sent any weather packets the latest 10 day(s).
| Time | Temp. | Humidity | Pressure | Rain* | Wind** | Luminosity | Snow |
|---|---|---|---|---|---|---|---|
| 1777567262 | 21.11° C | 94% | 1014.4 hPa | 0 mm | - | 36 W/m² | - |
| 1777566961 | 20.56° C | 94% | 1014.2 hPa | 0 mm | - | 44 W/m² | - |
| 1777566658 | 21.11° C | 94% | 1014.3 hPa | 0 mm | - | 41 W/m² | - |
| 1777566355 | 21.11° C | 94% | 1014.1 hPa | 0 mm | - | 43 W/m² | - |
| 1777566053 | 20.56° C | 94% | 1013.9 hPa | 0 mm | - | 49 W/m² | - |
| 1777565748 | 20.56° C | 94% | 1014 hPa | 0 mm | - | 65 W/m² | - |
| 1777565444 | 20.56° C | 94% | 1013.8 hPa | 0 mm | - | 69 W/m² | - |
| 1777565141 | 21.11° C | 94% | 1014 hPa | 0 mm | - | 90 W/m² | - |
| 1777564837 | 21.11° C | 95% | 1013.8 hPa | 0 mm | - | 86 W/m² | - |
| 1777564532 | 21.11° C | 95% | 1014.1 hPa | 0 mm | - | 70 W/m² | - |
| 1777564227 | 21.11° C | 96% | 1014.1 hPa | 0 mm | - | 74 W/m² | - |
| 1777563924 | 21.11° C | 96% | 1014.1 hPa | 0 mm | - | 103 W/m² | - |
| 1777563620 | 20.56° C | 96% | 1014.1 hPa | 0 mm | - | 98 W/m² | - |
| 1777563320 | 20.56° C | 97% | 1014.2 hPa | 0 mm | - | 76 W/m² | - |
| 1777563017 | 20.56° C | 97% | 1014.2 hPa | 0 mm | - | 94 W/m² | - |
| 1777562713 | 20.56° C | 97% | 1014.3 hPa | 0 mm | - | 94 W/m² | - |
| 1777562412 | 20.56° C | 97% | 1014.3 hPa | 0 mm | - | 73 W/m² | - |
| 1777562109 | 20.56° C | 97% | 1014.1 hPa | 0 mm | - | 94 W/m² | - |
| 1777561806 | 20.56° C | 97% | 1014 hPa | 0 mm | - | 114 W/m² | - |
| 1777561502 | 20.56° C | 97% | 1014.5 hPa | 0 mm | - | 59 W/m² | - |
| 1777561196 | 20.56° C | 97% | - | 0 mm | - | - | - |
* Rain latest hour (hover to see other rain measurements)
** Current wind speed in m/s (hover to see current wind gust speed)